sensor_id;sensor_type;location;lat;lon;timestamp;P1;durP1;ratioP1;P2;durP2;ratioP2
13014;SDS011;6573;57.696;11.950;2023-06-19T00:00:08;11.00;;;8.03;;
13014;SDS011;6573;57.696;11.950;2023-06-19T00:02:40;8.83;;;7.93;;
13014;SDS011;6573;57.696;11.950;2023-06-19T00:05:08;11.60;;;8.70;;
13014;SDS011;6573;57.696;11.950;2023-06-19T00:07:37;10.33;;;8.77;;
13014;SDS011;6573;57.696;11.950;2023-06-19T00:10:06;10.17;;;9.03;;
13014;SDS011;6573;57.696;11.950;2023-06-19T00:12:35;11.53;;;8.83;;
13014;SDS011;6573;57.696;11.950;2023-06-19T00:15:06;9.53;;;8.40;;
13014;SDS011;6573;57.696;11.950;2023-06-19T00:17:36;10.67;;;8.50;;
13014;SDS011;6573;57.696;11.950;2023-06-19T00:20:05;10.03;;;8.23;;
13014;SDS011;6573;57.696;11.950;2023-06-19T00:22:35;9.27;;;8.37;;
13014;SDS011;6573;57.696;11.950;2023-06-19T00:25:04;10.00;;;9.00;;
13014;SDS011;6573;57.696;11.950;2023-06-19T00:27:32;10.60;;;9.53;;
13014;SDS011;6573;57.696;11.950;2023-06-19T00:30:00;10.00;;;8.10;;
13014;SDS011;6573;57.696;11.950;2023-06-19T00:32:34;9.20;;;8.13;;
13014;SDS011;6573;57.696;11.950;2023-06-19T00:35:13;9.10;;;8.17;;
13014;SDS011;6573;57.696;11.950;2023-06-19T00:37:43;11.37;;;8.37;;
13014;SDS011;6573;57.696;11.950;2023-06-19T00:40:26;9.33;;;8.40;;
13014;SDS011;6573;57.696;11.950;2023-06-19T00:42:56;13.13;;;8.77;;
13014;SDS011;6573;57.696;11.950;2023-06-19T00:45:25;9.53;;;8.53;;
13014;SDS011;6573;57.696;11.950;2023-06-19T00:47:55;10.97;;;9.30;;
13014;SDS011;6573;57.696;11.950;2023-06-19T00:50:25;13.83;;;8.90;;
13014;SDS011;6573;57.696;11.950;2023-06-19T00:52:55;11.27;;;8.70;;
13014;SDS011;6573;57.696;11.950;2023-06-19T00:55:24;10.37;;;8.20;;
13014;SDS011;6573;57.696;11.950;2023-06-19T00:57:56;10.73;;;8.30;;
13014;SDS011;6573;57.696;11.950;2023-06-19T01:00:25;11.10;;;9.03;;
13014;SDS011;6573;57.696;11.950;2023-06-19T01:02:54;10.30;;;9.00;;
13014;SDS011;6573;57.696;11.950;2023-06-19T01:05:23;10.93;;;9.27;;
13014;SDS011;6573;57.696;11.950;2023-06-19T01:07:52;14.30;;;10.87;;
13014;SDS011;6573;57.696;11.950;2023-06-19T01:10:27;12.90;;;10.90;;
13014;SDS011;6573;57.696;11.950;2023-06-19T01:13:00;13.93;;;10.17;;
13014;SDS011;6573;57.696;11.950;2023-06-19T01:15:33;11.70;;;9.70;;
13014;SDS011;6573;57.696;11.950;2023-06-19T01:18:04;11.93;;;9.60;;
13014;SDS011;6573;57.696;11.950;2023-06-19T01:20:33;10.00;;;9.00;;
13014;SDS011;6573;57.696;11.950;2023-06-19T01:23:08;12.13;;;10.97;;
13014;SDS011;6573;57.696;11.950;2023-06-19T01:25:37;11.53;;;10.33;;
13014;SDS011;6573;57.696;11.950;2023-06-19T01:28:07;11.60;;;10.40;;
13014;SDS011;6573;57.696;11.950;2023-06-19T01:30:41;12.00;;;9.90;;
13014;SDS011;6573;57.696;11.950;2023-06-19T01:33:12;11.37;;;9.50;;
13014;SDS011;6573;57.696;11.950;2023-06-19T01:35:47;12.47;;;10.03;;
13014;SDS011;6573;57.696;11.950;2023-06-19T01:38:26;12.37;;;11.17;;
13014;SDS011;6573;57.696;11.950;2023-06-19T01:40:56;16.00;;;10.03;;
13014;SDS011;6573;57.696;11.950;2023-06-19T01:43:27;13.70;;;10.17;;
13014;SDS011;6573;57.696;11.950;2023-06-19T01:45:59;15.00;;;10.10;;
13014;SDS011;6573;57.696;11.950;2023-06-19T01:48:28;11.70;;;10.17;;
13014;SDS011;6573;57.696;11.950;2023-06-19T01:50:57;11.00;;;9.77;;
13014;SDS011;6573;57.696;11.950;2023-06-19T01:53:27;11.20;;;9.60;;
13014;SDS011;6573;57.696;11.950;2023-06-19T01:55:58;12.13;;;10.67;;
13014;SDS011;6573;57.696;11.950;2023-06-19T01:58:27;12.90;;;11.60;;
13014;SDS011;6573;57.696;11.950;2023-06-19T02:00:55;11.83;;;10.03;;
13014;SDS011;6573;57.696;11.950;2023-06-19T02:03:24;12.17;;;10.10;;
13014;SDS011;6573;57.696;11.950;2023-06-19T02:05:52;11.67;;;10.00;;
13014;SDS011;6573;57.696;11.950;2023-06-19T02:08:20;11.00;;;9.23;;
13014;SDS011;6573;57.696;11.950;2023-06-19T02:10:54;11.50;;;9.97;;
13014;SDS011;6573;57.696;11.950;2023-06-19T02:13:23;11.73;;;10.53;;
13014;SDS011;6573;57.696;11.950;2023-06-19T02:15:51;11.10;;;10.00;;
13014;SDS011;6573;57.696;11.950;2023-06-19T02:18:20;12.30;;;10.90;;
13014;SDS011;6573;57.696;11.950;2023-06-19T02:20:48;15.27;;;10.73;;
13014;SDS011;6573;57.696;11.950;2023-06-19T02:23:19;12.67;;;11.37;;
13014;SDS011;6573;57.696;11.950;2023-06-19T02:25:47;12.67;;;10.47;;
13014;SDS011;6573;57.696;11.950;2023-06-19T02:28:17;13.07;;;11.17;;
13014;SDS011;6573;57.696;11.950;2023-06-19T02:30:45;11.47;;;9.20;;
13014;SDS011;6573;57.696;11.950;2023-06-19T02:33:13;11.10;;;10.00;;
13014;SDS011;6573;57.696;11.950;2023-06-19T02:35:43;9.93;;;8.60;;
13014;SDS011;6573;57.696;11.950;2023-06-19T02:38:11;10.33;;;9.23;;
13014;SDS011;6573;57.696;11.950;2023-06-19T02:40:41;9.87;;;8.70;;
13014;SDS011;6573;57.696;11.950;2023-06-19T02:43:09;10.30;;;9.17;;
13014;SDS011;6573;57.696;11.950;2023-06-19T02:45:39;10.73;;;9.73;;
13014;SDS011;6573;57.696;11.950;2023-06-19T02:48:07;9.33;;;8.20;;
13014;SDS011;6573;57.696;11.950;2023-06-19T02:50:37;9.47;;;7.90;;
13014;SDS011;6573;57.696;11.950;2023-06-19T02:53:05;8.37;;;7.50;;
13014;SDS011;6573;57.696;11.950;2023-06-19T02:55:34;9.70;;;7.83;;
13014;SDS011;6573;57.696;11.950;2023-06-19T02:58:02;9.57;;;8.57;;
13014;SDS011;6573;57.696;11.950;2023-06-19T03:00:30;11.10;;;7.77;;
13014;SDS011;6573;57.696;11.950;2023-06-19T03:03:00;10.37;;;9.43;;
13014;SDS011;6573;57.696;11.950;2023-06-19T03:05:31;10.00;;;9.10;;
13014;SDS011;6573;57.696;11.950;2023-06-19T03:07:59;9.00;;;8.10;;
13014;SDS011;6573;57.696;11.950;2023-06-19T03:10:28;8.60;;;7.77;;
13014;SDS011;6573;57.696;11.950;2023-06-19T03:12:56;10.40;;;9.40;;
13014;SDS011;6573;57.696;11.950;2023-06-19T03:18:14;10.73;;;9.63;;
13014;SDS011;6573;57.696;11.950;2023-06-19T03:20:42;9.70;;;8.33;;
13014;SDS011;6573;57.696;11.950;2023-06-19T03:23:11;9.57;;;8.50;;
13014;SDS011;6573;57.696;11.950;2023-06-19T03:25:39;11.00;;;7.80;;
13014;SDS011;6573;57.696;11.950;2023-06-19T03:28:09;10.40;;;8.87;;
13014;SDS011;6573;57.696;11.950;2023-06-19T03:30:37;10.40;;;9.30;;
13014;SDS011;6573;57.696;11.950;2023-06-19T03:33:06;9.87;;;8.97;;
13014;SDS011;6573;57.696;11.950;2023-06-19T03:35:36;11.13;;;8.80;;
13014;SDS011;6573;57.696;11.950;2023-06-19T03:38:04;9.77;;;8.77;;
13014;SDS011;6573;57.696;11.950;2023-06-19T03:40:33;11.10;;;10.10;;
13014;SDS011;6573;57.696;11.950;2023-06-19T03:43:01;11.47;;;8.93;;
13014;SDS011;6573;57.696;11.950;2023-06-19T03:45:29;13.07;;;8.57;;
13014;SDS011;6573;57.696;11.950;2023-06-19T03:47:58;10.00;;;9.00;;
13014;SDS011;6573;57.696;11.950;2023-06-19T03:50:26;11.27;;;8.50;;
13014;SDS011;6573;57.696;11.950;2023-06-19T03:52:56;10.87;;;9.40;;
13014;SDS011;6573;57.696;11.950;2023-06-19T03:55:26;11.00;;;8.80;;
13014;SDS011;6573;57.696;11.950;2023-06-19T03:57:55;11.03;;;9.70;;
13014;SDS011;6573;57.696;11.950;2023-06-19T04:00:23;11.47;;;10.27;;
13014;SDS011;6573;57.696;11.950;2023-06-19T04:02:54;10.90;;;9.20;;
13014;SDS011;6573;57.696;11.950;2023-06-19T04:05:23;9.00;;;8.10;;
13014;SDS011;6573;57.696;11.950;2023-06-19T04:07:57;12.37;;;8.97;;
13014;SDS011;6573;57.696;11.950;2023-06-19T04:10:25;13.00;;;8.70;;
13014;SDS011;6573;57.696;11.950;2023-06-19T04:12:53;11.70;;;9.33;;
13014;SDS011;6573;57.696;11.950;2023-06-19T04:15:22;13.63;;;9.20;;
13014;SDS011;6573;57.696;11.950;2023-06-19T04:17:56;9.73;;;8.57;;
13014;SDS011;6573;57.696;11.950;2023-06-19T04:20:24;11.63;;;9.23;;
13014;SDS011;6573;57.696;11.950;2023-06-19T04:22:53;13.17;;;10.47;;
13014;SDS011;6573;57.696;11.950;2023-06-19T04:25:26;11.40;;;10.30;;
13014;SDS011;6573;57.696;11.950;2023-06-19T04:27:57;12.10;;;9.57;;
13014;SDS011;6573;57.696;11.950;2023-06-19T04:30:25;12.80;;;8.57;;
13014;SDS011;6573;57.696;11.950;2023-06-19T04:32:53;11.80;;;10.60;;
13014;SDS011;6573;57.696;11.950;2023-06-19T04:35:22;12.90;;;10.33;;
13014;SDS011;6573;57.696;11.950;2023-06-19T04:37:51;12.73;;;9.10;;
13014;SDS011;6573;57.696;11.950;2023-06-19T04:40:22;17.30;;;9.37;;
13014;SDS011;6573;57.696;11.950;2023-06-19T04:42:52;10.40;;;9.00;;
13014;SDS011;6573;57.696;11.950;2023-06-19T04:45:21;12.53;;;9.23;;
13014;SDS011;6573;57.696;11.950;2023-06-19T04:47:49;10.10;;;8.20;;
13014;SDS011;6573;57.696;11.950;2023-06-19T04:50:19;14.73;;;8.50;;
13014;SDS011;6573;57.696;11.950;2023-06-19T04:52:49;10.87;;;9.83;;
13014;SDS011;6573;57.696;11.950;2023-06-19T04:55:18;11.37;;;9.77;;
13014;SDS011;6573;57.696;11.950;2023-06-19T04:57:48;10.20;;;8.30;;
13014;SDS011;6573;57.696;11.950;2023-06-19T05:00:17;9.77;;;8.70;;
13014;SDS011;6573;57.696;11.950;2023-06-19T05:02:49;10.43;;;9.07;;
13014;SDS011;6573;57.696;11.950;2023-06-19T05:05:17;13.00;;;8.40;;
13014;SDS011;6573;57.696;11.950;2023-06-19T05:07:49;9.50;;;8.60;;
13014;SDS011;6573;57.696;11.950;2023-06-19T05:10:19;10.20;;;9.17;;
13014;SDS011;6573;57.696;11.950;2023-06-19T05:12:51;9.73;;;8.70;;
13014;SDS011;6573;57.696;11.950;2023-06-19T05:18:12;8.80;;;8.00;;
13014;SDS011;6573;57.696;11.950;2023-06-19T05:20:44;8.93;;;8.03;;
13014;SDS011;6573;57.696;11.950;2023-06-19T05:23:13;8.50;;;7.63;;
13014;SDS011;6573;57.696;11.950;2023-06-19T05:25:42;10.43;;;6.90;;
13014;SDS011;6573;57.696;11.950;2023-06-19T05:28:12;7.80;;;6.90;;
13014;SDS011;6573;57.696;11.950;2023-06-19T05:30:41;9.00;;;6.97;;
13014;SDS011;6573;57.696;11.950;2023-06-19T05:33:09;7.37;;;6.67;;
13014;SDS011;6573;57.696;11.950;2023-06-19T05:35:42;7.07;;;6.37;;
13014;SDS011;6573;57.696;11.950;2023-06-19T05:38:18;8.90;;;6.77;;
13014;SDS011;6573;57.696;11.950;2023-06-19T05:40:46;10.30;;;6.70;;
13014;SDS011;6573;57.696;11.950;2023-06-19T05:43:16;8.97;;;6.73;;
13014;SDS011;6573;57.696;11.950;2023-06-19T05:45:45;9.67;;;7.07;;
13014;SDS011;6573;57.696;11.950;2023-06-19T05:48:14;7.40;;;6.73;;
13014;SDS011;6573;57.696;11.950;2023-06-19T05:50:42;7.60;;;6.90;;
13014;SDS011;6573;57.696;11.950;2023-06-19T05:53:10;7.60;;;6.83;;
13014;SDS011;6573;57.696;11.950;2023-06-19T05:55:41;10.43;;;7.20;;
13014;SDS011;6573;57.696;11.950;2023-06-19T05:58:09;7.40;;;6.70;;
13014;SDS011;6573;57.696;11.950;2023-06-19T06:00:39;7.70;;;7.00;;
13014;SDS011;6573;57.696;11.950;2023-06-19T06:03:07;7.93;;;7.17;;
13014;SDS011;6573;57.696;11.950;2023-06-19T06:05:41;7.80;;;7.10;;
13014;SDS011;6573;57.696;11.950;2023-06-19T06:08:10;8.43;;;7.40;;
13014;SDS011;6573;57.696;11.950;2023-06-19T06:10:38;8.23;;;7.20;;
13014;SDS011;6573;57.696;11.950;2023-06-19T06:13:06;9.17;;;7.93;;
13014;SDS011;6573;57.696;11.950;2023-06-19T06:15:35;14.87;;;9.20;;
13014;SDS011;6573;57.696;11.950;2023-06-19T06:18:05;8.63;;;7.83;;
13014;SDS011;6573;57.696;11.950;2023-06-19T06:20:33;8.93;;;8.03;;
13014;SDS011;6573;57.696;11.950;2023-06-19T06:23:03;10.63;;;7.47;;
13014;SDS011;6573;57.696;11.950;2023-06-19T06:25:31;8.93;;;7.60;;
13014;SDS011;6573;57.696;11.950;2023-06-19T06:28:00;8.57;;;7.73;;
13014;SDS011;6573;57.696;11.950;2023-06-19T06:30:28;8.10;;;7.30;;
13014;SDS011;6573;57.696;11.950;2023-06-19T06:33:00;9.13;;;8.23;;
13014;SDS011;6573;57.696;11.950;2023-06-19T06:35:29;9.37;;;8.47;;
13014;SDS011;6573;57.696;11.950;2023-06-19T06:37:58;8.80;;;7.97;;
13014;SDS011;6573;57.696;11.950;2023-06-19T06:40:26;9.13;;;8.23;;
13014;SDS011;6573;57.696;11.950;2023-06-19T06:42:56;9.60;;;8.60;;
13014;SDS011;6573;57.696;11.950;2023-06-19T06:45:27;9.40;;;8.40;;
13014;SDS011;6573;57.696;11.950;2023-06-19T06:47:56;8.97;;;8.07;;
13014;SDS011;6573;57.696;11.950;2023-06-19T06:50:24;8.50;;;7.70;;
13014;SDS011;6573;57.696;11.950;2023-06-19T06:52:54;9.50;;;8.30;;
13014;SDS011;6573;57.696;11.950;2023-06-19T06:55:22;8.67;;;7.90;;
13014;SDS011;6573;57.696;11.950;2023-06-19T06:57:51;9.47;;;8.50;;
13014;SDS011;6573;57.696;11.950;2023-06-19T07:00:26;9.07;;;8.27;;
13014;SDS011;6573;57.696;11.950;2023-06-19T07:02:54;9.30;;;8.40;;
13014;SDS011;6573;57.696;11.950;2023-06-19T07:05:22;9.70;;;8.30;;
13014;SDS011;6573;57.696;11.950;2023-06-19T07:07:51;9.60;;;8.70;;
13014;SDS011;6573;57.696;11.950;2023-06-19T07:10:21;10.20;;;9.20;;
13014;SDS011;6573;57.696;11.950;2023-06-19T07:12:50;9.70;;;8.70;;
13014;SDS011;6573;57.696;11.950;2023-06-19T07:15:19;10.60;;;9.50;;
13014;SDS011;6573;57.696;11.950;2023-06-19T07:17:47;10.00;;;8.97;;
13014;SDS011;6573;57.696;11.950;2023-06-19T07:20:15;11.00;;;8.40;;
13014;SDS011;6573;57.696;11.950;2023-06-19T07:22:44;10.00;;;9.10;;
13014;SDS011;6573;57.696;11.950;2023-06-19T07:25:13;9.87;;;8.93;;
13014;SDS011;6573;57.696;11.950;2023-06-19T07:27:43;10.17;;;8.80;;
13014;SDS011;6573;57.696;11.950;2023-06-19T07:30:12;13.33;;;9.23;;
13014;SDS011;6573;57.696;11.950;2023-06-19T07:32:44;10.90;;;9.80;;
13014;SDS011;6573;57.696;11.950;2023-06-19T07:35:13;12.07;;;9.03;;
13014;SDS011;6573;57.696;11.950;2023-06-19T07:37:41;13.27;;;9.37;;
13014;SDS011;6573;57.696;11.950;2023-06-19T07:40:10;10.43;;;9.40;;
13014;SDS011;6573;57.696;11.950;2023-06-19T07:42:39;10.73;;;9.60;;
13014;SDS011;6573;57.696;11.950;2023-06-19T07:45:12;9.83;;;8.93;;
13014;SDS011;6573;57.696;11.950;2023-06-19T07:47:41;9.30;;;8.47;;
13014;SDS011;6573;57.696;11.950;2023-06-19T07:50:09;10.13;;;8.87;;
13014;SDS011;6573;57.696;11.950;2023-06-19T07:52:37;9.67;;;8.57;;
13014;SDS011;6573;57.696;11.950;2023-06-19T07:55:06;13.50;;;9.50;;
13014;SDS011;6573;57.696;11.950;2023-06-19T07:57:35;9.63;;;8.73;;
13014;SDS011;6573;57.696;11.950;2023-06-19T08:00:05;9.97;;;9.07;;
13014;SDS011;6573;57.696;11.950;2023-06-19T08:02:41;10.07;;;9.17;;
13014;SDS011;6573;57.696;11.950;2023-06-19T08:05:10;10.13;;;9.17;;
13014;SDS011;6573;57.696;11.950;2023-06-19T08:07:38;12.10;;;8.57;;
13014;SDS011;6573;57.696;11.950;2023-06-19T08:10:07;10.00;;;8.47;;
13014;SDS011;6573;57.696;11.950;2023-06-19T08:12:40;11.83;;;9.37;;
13014;SDS011;6573;57.696;11.950;2023-06-19T08:15:09;10.40;;;9.30;;
13014;SDS011;6573;57.696;11.950;2023-06-19T08:17:37;12.50;;;9.03;;
13014;SDS011;6573;57.696;11.950;2023-06-19T08:20:08;15.80;;;10.03;;
13014;SDS011;6573;57.696;11.950;2023-06-19T08:22:38;9.97;;;9.03;;
13014;SDS011;6573;57.696;11.950;2023-06-19T08:25:06;10.63;;;8.87;;
13014;SDS011;6573;57.696;11.950;2023-06-19T08:27:36;10.33;;;9.37;;
13014;SDS011;6573;57.696;11.950;2023-06-19T08:30:05;9.97;;;8.97;;
13014;SDS011;6573;57.696;11.950;2023-06-19T08:32:34;9.60;;;8.70;;
13014;SDS011;6573;57.696;11.950;2023-06-19T08:35:03;9.80;;;8.87;;
13014;SDS011;6573;57.696;11.950;2023-06-19T08:37:33;8.93;;;8.13;;
13014;SDS011;6573;57.696;11.950;2023-06-19T08:40:02;9.97;;;9.07;;
13014;SDS011;6573;57.696;11.950;2023-06-19T08:42:36;10.30;;;8.90;;
13014;SDS011;6573;57.696;11.950;2023-06-19T08:45:06;9.43;;;8.53;;
13014;SDS011;6573;57.696;11.950;2023-06-19T08:47:35;14.73;;;11.87;;
13014;SDS011;6573;57.696;11.950;2023-06-19T08:50:06;9.30;;;8.30;;
13014;SDS011;6573;57.696;11.950;2023-06-19T08:52:39;9.90;;;8.83;;
13014;SDS011;6573;57.696;11.950;2023-06-19T08:55:10;10.03;;;9.00;;
13014;SDS011;6573;57.696;11.950;2023-06-19T08:57:40;9.03;;;8.23;;
13014;SDS011;6573;57.696;11.950;2023-06-19T09:00:09;9.40;;;8.53;;
13014;SDS011;6573;57.696;11.950;2023-06-19T09:02:39;9.93;;;9.00;;
13014;SDS011;6573;57.696;11.950;2023-06-19T09:05:12;9.70;;;8.80;;
13014;SDS011;6573;57.696;11.950;2023-06-19T09:07:43;9.37;;;8.47;;
13014;SDS011;6573;57.696;11.950;2023-06-19T09:10:13;11.40;;;7.93;;
13014;SDS011;6573;57.696;11.950;2023-06-19T09:12:55;8.97;;;8.17;;
13014;SDS011;6573;57.696;11.950;2023-06-19T09:15:27;8.73;;;7.70;;
13014;SDS011;6573;57.696;11.950;2023-06-19T09:18:00;8.47;;;7.60;;
13014;SDS011;6573;57.696;11.950;2023-06-19T09:20:33;8.67;;;7.87;;
13014;SDS011;6573;57.696;11.950;2023-06-19T09:23:13;8.60;;;7.80;;
13014;SDS011;6573;57.696;11.950;2023-06-19T09:25:45;9.03;;;8.10;;
13014;SDS011;6573;57.696;11.950;2023-06-19T09:28:20;9.80;;;8.80;;
13014;SDS011;6573;57.696;11.950;2023-06-19T09:30:54;10.13;;;8.70;;
13014;SDS011;6573;57.696;11.950;2023-06-19T09:33:25;11.77;;;8.43;;
13014;SDS011;6573;57.696;11.950;2023-06-19T09:35:58;9.30;;;8.30;;
13014;SDS011;6573;57.696;11.950;2023-06-19T09:38:30;9.13;;;8.23;;
13014;SDS011;6573;57.696;11.950;2023-06-19T09:41:01;10.20;;;9.13;;
13014;SDS011;6573;57.696;11.950;2023-06-19T09:43:33;9.43;;;8.53;;
13014;SDS011;6573;57.696;11.950;2023-06-19T09:46:03;11.50;;;9.60;;
13014;SDS011;6573;57.696;11.950;2023-06-19T09:48:33;11.73;;;10.53;;
13014;SDS011;6573;57.696;11.950;2023-06-19T09:51:07;12.53;;;10.40;;
13014;SDS011;6573;57.696;11.950;2023-06-19T09:53:41;11.40;;;10.20;;
13014;SDS011;6573;57.696;11.950;2023-06-19T09:56:12;11.57;;;10.00;;
13014;SDS011;6573;57.696;11.950;2023-06-19T09:58:42;11.67;;;10.50;;
13014;SDS011;6573;57.696;11.950;2023-06-19T10:01:11;11.87;;;9.43;;
13014;SDS011;6573;57.696;11.950;2023-06-19T10:03:42;11.10;;;9.53;;
13014;SDS011;6573;57.696;11.950;2023-06-19T10:06:12;12.70;;;9.90;;
13014;SDS011;6573;57.696;11.950;2023-06-19T10:08:46;17.23;;;11.10;;
13014;SDS011;6573;57.696;11.950;2023-06-19T10:11:14;12.20;;;10.90;;
13014;SDS011;6573;57.696;11.950;2023-06-19T10:13:43;11.13;;;10.03;;
13014;SDS011;6573;57.696;11.950;2023-06-19T10:16:20;12.17;;;10.80;;
13014;SDS011;6573;57.696;11.950;2023-06-19T10:18:50;13.10;;;10.03;;
13014;SDS011;6573;57.696;11.950;2023-06-19T10:21:18;11.40;;;10.30;;
13014;SDS011;6573;57.696;11.950;2023-06-19T10:23:55;11.23;;;10.13;;
13014;SDS011;6573;57.696;11.950;2023-06-19T10:26:31;12.43;;;11.23;;
13014;SDS011;6573;57.696;11.950;2023-06-19T10:29:01;12.27;;;10.80;;
13014;SDS011;6573;57.696;11.950;2023-06-19T10:31:31;12.57;;;11.37;;
13014;SDS011;6573;57.696;11.950;2023-06-19T10:33:59;11.50;;;10.40;;
13014;SDS011;6573;57.696;11.950;2023-06-19T10:36:30;11.80;;;10.70;;
13014;SDS011;6573;57.696;11.950;2023-06-19T10:39:01;12.57;;;10.87;;
13014;SDS011;6573;57.696;11.950;2023-06-19T10:41:29;12.43;;;11.13;;
13014;SDS011;6573;57.696;11.950;2023-06-19T10:43:59;12.87;;;11.63;;
13014;SDS011;6573;57.696;11.950;2023-06-19T10:46:29;12.93;;;11.70;;
13014;SDS011;6573;57.696;11.950;2023-06-19T10:48:59;12.67;;;11.30;;
13014;SDS011;6573;57.696;11.950;2023-06-19T10:51:33;14.77;;;11.70;;
13014;SDS011;6573;57.696;11.950;2023-06-19T10:54:05;30.83;;;13.47;;
13014;SDS011;6573;57.696;11.950;2023-06-19T10:56:36;12.40;;;11.10;;
13014;SDS011;6573;57.696;11.950;2023-06-19T10:59:07;11.60;;;10.50;;
13014;SDS011;6573;57.696;11.950;2023-06-19T11:01:55;12.77;;;11.47;;
13014;SDS011;6573;57.696;11.950;2023-06-19T11:04:30;12.10;;;10.97;;
13014;SDS011;6573;57.696;11.950;2023-06-19T11:07:04;12.60;;;10.40;;
13014;SDS011;6573;57.696;11.950;2023-06-19T11:09:35;12.17;;;10.20;;
13014;SDS011;6573;57.696;11.950;2023-06-19T11:12:04;10.27;;;9.00;;
13014;SDS011;6573;57.696;11.950;2023-06-19T11:14:34;10.30;;;9.30;;
13014;SDS011;6573;57.696;11.950;2023-06-19T11:17:18;10.63;;;9.53;;
13014;SDS011;6573;57.696;11.950;2023-06-19T11:19:49;10.70;;;9.53;;
13014;SDS011;6573;57.696;11.950;2023-06-19T11:22:17;10.53;;;9.50;;
13014;SDS011;6573;57.696;11.950;2023-06-19T11:24:50;10.73;;;9.47;;
13014;SDS011;6573;57.696;11.950;2023-06-19T11:27:22;13.40;;;10.60;;
13014;SDS011;6573;57.696;11.950;2023-06-19T11:29:56;12.47;;;11.10;;
13014;SDS011;6573;57.696;11.950;2023-06-19T11:32:31;11.70;;;10.50;;
13014;SDS011;6573;57.696;11.950;2023-06-19T11:35:05;10.80;;;9.67;;
13014;SDS011;6573;57.696;11.950;2023-06-19T11:37:36;11.57;;;10.30;;
13014;SDS011;6573;57.696;11.950;2023-06-19T11:40:09;18.27;;;9.73;;
13014;SDS011;6573;57.696;11.950;2023-06-19T11:42:45;11.30;;;10.20;;
13014;SDS011;6573;57.696;11.950;2023-06-19T11:45:14;10.10;;;9.07;;
13014;SDS011;6573;57.696;11.950;2023-06-19T11:47:44;11.70;;;10.03;;
13014;SDS011;6573;57.696;11.950;2023-06-19T11:50:13;12.97;;;11.20;;
13014;SDS011;6573;57.696;11.950;2023-06-19T11:52:43;14.00;;;12.60;;
13014;SDS011;6573;57.696;11.950;2023-06-19T11:55:14;13.87;;;12.43;;
13014;SDS011;6573;57.696;11.950;2023-06-19T11:57:43;14.20;;;12.73;;
13014;SDS011;6573;57.696;11.950;2023-06-19T12:00:15;13.67;;;12.37;;
13014;SDS011;6573;57.696;11.950;2023-06-19T12:02:44;13.33;;;12.13;;
13014;SDS011;6573;57.696;11.950;2023-06-19T12:05:14;11.70;;;10.50;;
13014;SDS011;6573;57.696;11.950;2023-06-19T12:07:44;13.23;;;12.03;;
13014;SDS011;6573;57.696;11.950;2023-06-19T12:10:17;12.40;;;11.20;;
13014;SDS011;6573;57.696;11.950;2023-06-19T12:12:45;12.60;;;11.33;;
13014;SDS011;6573;57.696;11.950;2023-06-19T12:15:13;12.60;;;11.30;;
13014;SDS011;6573;57.696;11.950;2023-06-19T12:17:42;12.40;;;11.10;;
13014;SDS011;6573;57.696;11.950;2023-06-19T12:20:11;12.77;;;11.47;;
13014;SDS011;6573;57.696;11.950;2023-06-19T12:22:40;12.73;;;10.63;;
13014;SDS011;6573;57.696;11.950;2023-06-19T12:25:13;11.30;;;9.43;;
13014;SDS011;6573;57.696;11.950;2023-06-19T12:27:43;8.73;;;7.60;;
13014;SDS011;6573;57.696;11.950;2023-06-19T12:30:11;8.70;;;7.50;;
13014;SDS011;6573;57.696;11.950;2023-06-19T12:32:43;11.53;;;7.50;;
13014;SDS011;6573;57.696;11.950;2023-06-19T12:35:15;9.00;;;7.87;;
13014;SDS011;6573;57.696;11.950;2023-06-19T12:37:44;9.30;;;7.50;;
13014;SDS011;6573;57.696;11.950;2023-06-19T12:40:14;7.87;;;7.17;;
13014;SDS011;6573;57.696;11.950;2023-06-19T12:42:43;7.50;;;6.80;;
13014;SDS011;6573;57.696;11.950;2023-06-19T12:45:14;7.80;;;7.00;;
13014;SDS011;6573;57.696;11.950;2023-06-19T12:47:42;9.03;;;6.63;;
13014;SDS011;6573;57.696;11.950;2023-06-19T12:50:11;8.47;;;7.33;;
13014;SDS011;6573;57.696;11.950;2023-06-19T12:52:40;7.93;;;7.10;;
13014;SDS011;6573;57.696;11.950;2023-06-19T12:55:09;7.53;;;6.83;;
13014;SDS011;6573;57.696;11.950;2023-06-19T12:57:39;7.93;;;7.07;;
13014;SDS011;6573;57.696;11.950;2023-06-19T13:00:09;8.87;;;7.20;;
13014;SDS011;6573;57.696;11.950;2023-06-19T13:02:42;8.70;;;7.70;;
13014;SDS011;6573;57.696;11.950;2023-06-19T13:05:13;7.90;;;7.20;;
13014;SDS011;6573;57.696;11.950;2023-06-19T13:07:43;7.10;;;6.43;;
13014;SDS011;6573;57.696;11.950;2023-06-19T13:10:12;8.07;;;7.30;;
13014;SDS011;6573;57.696;11.950;2023-06-19T13:12:42;9.03;;;8.00;;
13014;SDS011;6573;57.696;11.950;2023-06-19T13:15:11;9.33;;;8.43;;
13014;SDS011;6573;57.696;11.950;2023-06-19T13:17:39;9.33;;;8.50;;
13014;SDS011;6573;57.696;11.950;2023-06-19T13:20:07;9.43;;;8.10;;
13014;SDS011;6573;57.696;11.950;2023-06-19T13:22:36;10.30;;;8.57;;
13014;SDS011;6573;57.696;11.950;2023-06-19T13:25:05;8.37;;;7.77;;
13014;SDS011;6573;57.696;11.950;2023-06-19T13:27:36;11.07;;;8.03;;
13014;SDS011;6573;57.696;11.950;2023-06-19T13:30:07;8.33;;;7.63;;
13014;SDS011;6573;57.696;11.950;2023-06-19T13:32:36;8.17;;;7.37;;
13014;SDS011;6573;57.696;11.950;2023-06-19T13:35:05;7.97;;;7.27;;
13014;SDS011;6573;57.696;11.950;2023-06-19T13:37:35;8.30;;;7.50;;
13014;SDS011;6573;57.696;11.950;2023-06-19T13:40:07;8.57;;;7.80;;
13014;SDS011;6573;57.696;11.950;2023-06-19T13:42:36;9.00;;;7.70;;
13014;SDS011;6573;57.696;11.950;2023-06-19T13:45:09;8.87;;;8.07;;
13014;SDS011;6573;57.696;11.950;2023-06-19T13:47:38;8.47;;;7.63;;
13014;SDS011;6573;57.696;11.950;2023-06-19T13:50:07;8.83;;;7.60;;
13014;SDS011;6573;57.696;11.950;2023-06-19T13:52:36;9.60;;;8.77;;
13014;SDS011;6573;57.696;11.950;2023-06-19T13:55:08;8.53;;;7.67;;
13014;SDS011;6573;57.696;11.950;2023-06-19T13:57:36;8.73;;;7.83;;
13014;SDS011;6573;57.696;11.950;2023-06-19T14:00:09;7.63;;;6.93;;
13014;SDS011;6573;57.696;11.950;2023-06-19T14:02:38;8.90;;;7.53;;
13014;SDS011;6573;57.696;11.950;2023-06-19T14:05:08;9.17;;;7.00;;
13014;SDS011;6573;57.696;11.950;2023-06-19T14:07:37;8.13;;;7.30;;
13014;SDS011;6573;57.696;11.950;2023-06-19T14:10:06;7.73;;;7.03;;
13014;SDS011;6573;57.696;11.950;2023-06-19T14:12:35;7.70;;;7.00;;
13014;SDS011;6573;57.696;11.950;2023-06-19T14:15:05;7.83;;;7.03;;
13014;SDS011;6573;57.696;11.950;2023-06-19T14:17:36;9.20;;;7.47;;
13014;SDS011;6573;57.696;11.950;2023-06-19T14:20:05;8.17;;;7.37;;
13014;SDS011;6573;57.696;11.950;2023-06-19T14:22:35;7.73;;;6.80;;
13014;SDS011;6573;57.696;11.950;2023-06-19T14:25:03;8.77;;;6.77;;
13014;SDS011;6573;57.696;11.950;2023-06-19T14:27:32;8.00;;;7.30;;
13014;SDS011;6573;57.696;11.950;2023-06-19T14:30:01;6.87;;;6.13;;
13014;SDS011;6573;57.696;11.950;2023-06-19T14:32:30;8.00;;;7.20;;
13014;SDS011;6573;57.696;11.950;2023-06-19T14:35:00;7.30;;;6.60;;
13014;SDS011;6573;57.696;11.950;2023-06-19T14:37:30;7.37;;;6.70;;
13014;SDS011;6573;57.696;11.950;2023-06-19T14:39:59;6.90;;;6.40;;
13014;SDS011;6573;57.696;11.950;2023-06-19T14:42:27;7.83;;;7.17;;
13014;SDS011;6573;57.696;11.950;2023-06-19T14:44:56;7.67;;;7.00;;
13014;SDS011;6573;57.696;11.950;2023-06-19T14:47:25;7.83;;;7.07;;
13014;SDS011;6573;57.696;11.950;2023-06-19T14:49:53;7.80;;;7.10;;
13014;SDS011;6573;57.696;11.950;2023-06-19T14:52:23;9.77;;;7.40;;
13014;SDS011;6573;57.696;11.950;2023-06-19T14:54:51;7.63;;;6.93;;
13014;SDS011;6573;57.696;11.950;2023-06-19T14:57:24;7.77;;;7.00;;
13014;SDS011;6573;57.696;11.950;2023-06-19T14:59:52;8.27;;;7.33;;